Погода Билгяхна 2 недели

Апшеронский район, Азербайджан

14 - 27 июля
  • 14июля
    Сегодня
    +23°
    +32°
    Практически безоблачно
    ВремяПогодаТемператураВлажностьДавлениеВетер, м/сВероятность осадков
    01:00Практически безоблачно+26°C53 %753 мм3.4 м/с2 %
    04:00Ясно и безоблачно+25°C58 %753 мм2.2 м/с2 %
    07:00Ясно и безоблачно+25°C52 %753 мм1.4 м/с2 %
    10:00Ясно и безоблачно+30°C41 %753 мм3.1 м/с2 %
    13:00Практически безоблачно+32°C38 %753 мм4.4 м/с2 %
    16:00Ясно и безоблачно+31°C41 %753 мм5.0 м/с2 %
    19:00Ясно и безоблачно+28°C52 %753 мм3.8 м/с2 %
    22:00Ясно и безоблачно+26°C56 %754 мм2.7 м/с2 %
  • 15июля
    Понедельник
    +24°
    +33°
    Ясно и безоблачно
    ВремяПогодаТемператураВлажностьДавлениеВетер, м/сВероятность осадков
    01:00Ясно и безоблачно+24°C64 %753 мм2.4 м/с2 %
    04:00Ясно и безоблачно+23°C68 %753 мм1.6 м/с2 %
    07:00Ясно и безоблачно+25°C68 %754 мм0.4 м/с2 %
    10:00Ясно и безоблачно+30°C56 %754 мм2.3 м/с2 %
    13:00Ясно и безоблачно+32°C44 %754 мм3.2 м/с2 %
    16:00Ясно и безоблачно+33°C42 %753 мм2.6 м/с2 %
    19:00Ясно и безоблачно+31°C46 %753 мм1.6 м/с2 %
    22:00Ясно и безоблачно+28°C50 %754 мм1.4 м/с2 %
  • 16июля
    Вторник
    +23°
    +34°
    Ясно и безоблачно
    ВремяПогодаТемператураВлажностьДавлениеВетер, м/сВероятность осадков
    01:00Ясно и безоблачно+26°C62 %754 мм0.9 м/с2 %
    04:00Ясно и безоблачно+25°C68 %754 мм0.4 м/с2 %
    07:00Ясно и безоблачно+26°C67 %754 мм0.2 м/с2 %
    10:00Ясно и безоблачно+32°C63 %754 мм2.2 м/с2 %
    13:00Ясно и безоблачно+33°C56 %754 мм3.2 м/с2 %
    16:00Ясно и безоблачно+33°C55 %754 мм3.3 м/с2 %
    19:00Ясно и безоблачно+31°C55 %754 мм1.9 м/с2 %
    22:00Ясно и безоблачно+28°C60 %755 мм1.0 м/с2 %
  • 17июля
    Среда
    +24°
    +34°
    Ясно и безоблачно
    ВремяПогодаТемператураВлажностьДавлениеВетер, м/сВероятность осадков
    01:00Ясно и безоблачно+26°C65 %754 мм0.6 м/с2 %
    04:00Ясно и безоблачно+24°C73 %754 мм0.3 м/с2 %
    07:00Ясно и безоблачно+26°C75 %754 мм0.3 м/с2 %
    10:00Ясно и безоблачно+31°C59 %755 мм2.7 м/с2 %
    13:00Ясно и безоблачно+33°C54 %755 мм4.5 м/с2 %
    16:00Ясно и безоблачно+33°C52 %754 мм3.6 м/с2 %
    19:00Ясно и безоблачно+31°C57 %754 мм3.4 м/с2 %
    22:00Ясно и безоблачно+28°C60 %754 мм2.2 м/с2 %
  • 18июля
    Четверг
    +23°
    +32°
    Облачно с прояснениями
    ВремяПогодаТемператураВлажностьДавлениеВетер, м/сВероятность осадков
    01:00Практически безоблачно+26°C69 %754 мм1.9 м/с2 %
    04:00Практически безоблачно+25°C74 %754 мм1.9 м/с2 %
    07:00Ясно и безоблачно+27°C69 %754 мм2.7 м/с2 %
    10:00Небольшая облачность+31°C61 %754 мм5.8 м/с6 %
    13:00Облачно с прояснениями+31°C50 %754 мм6.0 м/с11 %
    16:00Практически безоблачно+31°C47 %753 мм4.2 м/с7 %
    19:00Ясно и безоблачно+30°C48 %753 мм4.1 м/с2 %
    22:00Ясно и безоблачно+27°C52 %754 мм3.4 м/с2 %
Мы используем cookies
Соглашаюсь